PGRO/ROP METAR and TAF weather

Enter ICAO airport designator
Station Type Date Time Source
PGRO METAR 2019/11/18 09:50 UTC NOAA

PGRO 180950Z 09012KT 7SM SCT020 BKN100 26/24 A2988 RMK LAST


Station Type Date Time Source
PGRO Decoded METAR 2019/11/18 09:50 UTC NOAA

Rota Island, N. Mariana Is, Rota International Airport, GU, United States (PGRO) 14-11N 145-15E
Nov 18, 2019 - 04:50 AM EST / 2019.11.18 0950 UTC
Wind: from the E (090 degrees) at 14 MPH (12 KT):0
Visibility: 7 mile(s):0
Sky conditions: mostly cloudy
Temperature: 78 F (26 C)
Dew Point: 75 F (24 C)
Relative Humidity: 88%
Pressure (altimeter): 29.88 in. Hg (1011 hPa)
ob: PGRO 180950Z 09012KT 7SM SCT020 BKN100 26/24 A2988 RMK LAST
cycle: 10

Station Type Date Time Source
PGRO TAF 2019/11/18 06:33 UTC NOAA

TAF PGRO 180530Z 1806/1906 09014KT P6SM VCSH SCT014 SCT040 BKN110
TEMPO 1806/1810 4SM SHRA SCT016 BKN025

Example: see airport list